sensor_id;sensor_type;location;lat;lon;timestamp;temperature;humidity
53643;DHT22;39546;45.534;12.048;2022-07-29T00:03:46;28.80;54.40
53643;DHT22;39546;45.534;12.048;2022-07-29T00:09:49;29.00;54.30
53643;DHT22;39546;45.534;12.048;2022-07-29T00:15:51;29.30;54.00
53643;DHT22;39546;45.534;12.048;2022-07-29T00:21:53;29.00;54.10
53643;DHT22;39546;45.534;12.048;2022-07-29T00:27:55;28.70;53.80
53643;DHT22;39546;45.534;12.048;2022-07-29T00:33:57;28.60;53.70
53643;DHT22;39546;45.534;12.048;2022-07-29T00:40:01;28.40;53.00
53643;DHT22;39546;45.534;12.048;2022-07-29T00:46:03;28.30;51.90
53643;DHT22;39546;45.534;12.048;2022-07-29T00:52:06;28.20;51.60
53643;DHT22;39546;45.534;12.048;2022-07-29T00:58:12;28.30;52.60
53643;DHT22;39546;45.534;12.048;2022-07-29T01:04:14;28.40;53.20
53643;DHT22;39546;45.534;12.048;2022-07-29T01:10:16;28.30;52.70
53643;DHT22;39546;45.534;12.048;2022-07-29T01:16:31;28.10;53.10
53643;DHT22;39546;45.534;12.048;2022-07-29T01:28:47;28.60;53.40
53643;DHT22;39546;45.534;12.048;2022-07-29T01:41:04;28.70;53.50
53643;DHT22;39546;45.534;12.048;2022-07-29T01:47:16;28.80;53.70
53643;DHT22;39546;45.534;12.048;2022-07-29T01:53:29;28.80;53.60
53643;DHT22;39546;45.534;12.048;2022-07-29T01:59:55;28.80;53.80
53643;DHT22;39546;45.534;12.048;2022-07-29T02:05:58;28.60;54.00
53643;DHT22;39546;45.534;12.048;2022-07-29T02:12:03;28.60;54.00
53643;DHT22;39546;45.534;12.048;2022-07-29T02:18:08;28.60;54.00
53643;DHT22;39546;45.534;12.048;2022-07-29T02:24:11;28.50;54.30
53643;DHT22;39546;45.534;12.048;2022-07-29T02:30:15;28.50;54.00
53643;DHT22;39546;45.534;12.048;2022-07-29T02:36:17;28.50;54.10
53643;DHT22;39546;45.534;12.048;2022-07-29T02:42:24;28.20;54.40
53643;DHT22;39546;45.534;12.048;2022-07-29T02:48:43;27.90;54.50
53643;DHT22;39546;45.534;12.048;2022-07-29T02:55:00;27.80;54.70
53643;DHT22;39546;45.534;12.048;2022-07-29T03:01:11;27.60;55.00
53643;DHT22;39546;45.534;12.048;2022-07-29T03:07:16;27.60;55.10
53643;DHT22;39546;45.534;12.048;2022-07-29T03:13:19;27.50;55.10
53643;DHT22;39546;45.534;12.048;2022-07-29T03:19:22;27.50;55.30
53643;DHT22;39546;45.534;12.048;2022-07-29T03:25:24;27.70;55.20
53643;DHT22;39546;45.534;12.048;2022-07-29T03:31:28;27.60;55.20
53643;DHT22;39546;45.534;12.048;2022-07-29T03:37:30;27.70;55.40
53643;DHT22;39546;45.534;12.048;2022-07-29T03:43:36;27.80;55.30
53643;DHT22;39546;45.534;12.048;2022-07-29T03:49:40;27.80;55.30
53643;DHT22;39546;45.534;12.048;2022-07-29T03:55:48;27.70;55.60
53643;DHT22;39546;45.534;12.048;2022-07-29T04:01:53;27.50;55.80
53643;DHT22;39546;45.534;12.048;2022-07-29T04:07:57;27.30;56.20
53643;DHT22;39546;45.534;12.048;2022-07-29T04:14:00;27.30;56.10
53643;DHT22;39546;45.534;12.048;2022-07-29T04:20:02;27.00;56.50
53643;DHT22;39546;45.534;12.048;2022-07-29T04:26:05;27.00;56.40
53643;DHT22;39546;45.534;12.048;2022-07-29T04:32:07;26.80;56.60
53643;DHT22;39546;45.534;12.048;2022-07-29T04:38:34;26.70;56.80
53643;DHT22;39546;45.534;12.048;2022-07-29T04:44:37;26.80;56.90
53643;DHT22;39546;45.534;12.048;2022-07-29T04:50:40;26.90;56.70
53643;DHT22;39546;45.534;12.048;2022-07-29T04:56:42;27.00;56.60
53643;DHT22;39546;45.534;12.048;2022-07-29T05:02:45;27.00;56.70
53643;DHT22;39546;45.534;12.048;2022-07-29T05:08:47;27.00;56.60
53643;DHT22;39546;45.534;12.048;2022-07-29T05:14:49;26.80;57.00
53643;DHT22;39546;45.534;12.048;2022-07-29T05:20:59;26.70;57.00
53643;DHT22;39546;45.534;12.048;2022-07-29T05:27:01;26.60;56.90
53643;DHT22;39546;45.534;12.048;2022-07-29T05:33:13;26.50;56.90
53643;DHT22;39546;45.534;12.048;2022-07-29T05:39:16;26.60;56.90
53643;DHT22;39546;45.534;12.048;2022-07-29T05:45:18;26.90;56.60
53643;DHT22;39546;45.534;12.048;2022-07-29T05:51:20;27.00;56.30
53643;DHT22;39546;45.534;12.048;2022-07-29T05:57:23;27.10;56.10
53643;DHT22;39546;45.534;12.048;2022-07-29T06:03:25;27.20;56.00
53643;DHT22;39546;45.534;12.048;2022-07-29T06:09:28;27.40;55.60
53643;DHT22;39546;45.534;12.048;2022-07-29T06:15:31;27.60;55.30
53643;DHT22;39546;45.534;12.048;2022-07-29T06:21:47;27.80;55.00
53643;DHT22;39546;45.534;12.048;2022-07-29T06:27:49;27.80;54.80
53643;DHT22;39546;45.534;12.048;2022-07-29T06:33:51;28.00;54.60
53643;DHT22;39546;45.534;12.048;2022-07-29T06:39:54;28.10;54.40
53643;DHT22;39546;45.534;12.048;2022-07-29T06:46:15;28.30;54.20
53643;DHT22;39546;45.534;12.048;2022-07-29T06:52:19;28.60;54.20
53643;DHT22;39546;45.534;12.048;2022-07-29T06:58:21;28.80;53.70
53643;DHT22;39546;45.534;12.048;2022-07-29T07:04:29;28.80;53.30
53643;DHT22;39546;45.534;12.048;2022-07-29T07:10:32;28.80;53.20
53643;DHT22;39546;45.534;12.048;2022-07-29T07:16:34;28.90;53.30
53643;DHT22;39546;45.534;12.048;2022-07-29T07:22:36;29.00;53.00
53643;DHT22;39546;45.534;12.048;2022-07-29T07:28:38;29.20;52.90
53643;DHT22;39546;45.534;12.048;2022-07-29T07:34:42;29.30;52.30
53643;DHT22;39546;45.534;12.048;2022-07-29T07:40:45;29.40;52.30
53643;DHT22;39546;45.534;12.048;2022-07-29T07:46:48;29.50;51.80
53643;DHT22;39546;45.534;12.048;2022-07-29T07:52:52;29.60;51.70
53643;DHT22;39546;45.534;12.048;2022-07-29T07:59:03;29.80;51.60
53643;DHT22;39546;45.534;12.048;2022-07-29T08:05:06;29.90;51.30
53643;DHT22;39546;45.534;12.048;2022-07-29T08:11:21;30.10;51.10
53643;DHT22;39546;45.534;12.048;2022-07-29T08:17:23;30.30;50.70
53643;DHT22;39546;45.534;12.048;2022-07-29T08:23:26;30.30;50.50
53643;DHT22;39546;45.534;12.048;2022-07-29T08:29:29;30.30;50.40
53643;DHT22;39546;45.534;12.048;2022-07-29T08:35:31;30.40;49.80
53643;DHT22;39546;45.534;12.048;2022-07-29T08:41:33;30.40;49.70
53643;DHT22;39546;45.534;12.048;2022-07-29T08:47:38;30.50;49.20
53643;DHT22;39546;45.534;12.048;2022-07-29T08:53:42;30.70;49.20
53643;DHT22;39546;45.534;12.048;2022-07-29T08:59:46;30.80;48.60
53643;DHT22;39546;45.534;12.048;2022-07-29T09:05:49;30.80;48.00
53643;DHT22;39546;45.534;12.048;2022-07-29T09:11:51;31.00;48.10
53643;DHT22;39546;45.534;12.048;2022-07-29T09:17:54;31.30;47.80
53643;DHT22;39546;45.534;12.048;2022-07-29T09:24:11;31.50;47.60
53643;DHT22;39546;45.534;12.048;2022-07-29T09:30:49;31.70;47.10
53643;DHT22;39546;45.534;12.048;2022-07-29T09:37:10;31.70;46.50
53643;DHT22;39546;45.534;12.048;2022-07-29T09:43:14;31.60;45.70
53643;DHT22;39546;45.534;12.048;2022-07-29T09:49:16;31.70;45.30
53643;DHT22;39546;45.534;12.048;2022-07-29T09:55:19;31.90;45.30
53643;DHT22;39546;45.534;12.048;2022-07-29T10:01:48;32.10;44.80
53643;DHT22;39546;45.534;12.048;2022-07-29T10:07:56;32.30;44.40
53643;DHT22;39546;45.534;12.048;2022-07-29T10:14:02;32.70;43.70
53643;DHT22;39546;45.534;12.048;2022-07-29T10:20:17;32.70;42.80
53643;DHT22;39546;45.534;12.048;2022-07-29T10:26:20;32.60;42.60
53643;DHT22;39546;45.534;12.048;2022-07-29T10:45:18;33.20;42.40
53643;DHT22;39546;45.534;12.048;2022-07-29T10:51:20;33.40;41.90
53643;DHT22;39546;45.534;12.048;2022-07-29T10:57:29;33.60;41.30
53643;DHT22;39546;45.534;12.048;2022-07-29T11:03:45;33.70;40.60
53643;DHT22;39546;45.534;12.048;2022-07-29T11:16:17;33.80;39.60
53643;DHT22;39546;45.534;12.048;2022-07-29T11:22:43;34.10;39.90
53643;DHT22;39546;45.534;12.048;2022-07-29T11:29:20;34.40;39.10
53643;DHT22;39546;45.534;12.048;2022-07-29T11:35:42;34.70;39.00
53643;DHT22;39546;45.534;12.048;2022-07-29T11:41:44;34.90;38.40
53643;DHT22;39546;45.534;12.048;2022-07-29T11:53:50;35.20;37.10
53643;DHT22;39546;45.534;12.048;2022-07-29T11:59:53;35.20;37.20
53643;DHT22;39546;45.534;12.048;2022-07-29T12:05:57;35.40;36.80
53643;DHT22;39546;45.534;12.048;2022-07-29T12:12:01;35.40;36.70
53643;DHT22;39546;45.534;12.048;2022-07-29T12:18:14;35.50;36.30
53643;DHT22;39546;45.534;12.048;2022-07-29T12:24:18;35.70;35.80
53643;DHT22;39546;45.534;12.048;2022-07-29T12:30:48;35.80;35.60
53643;DHT22;39546;45.534;12.048;2022-07-29T12:36:54;35.70;34.30
53643;DHT22;39546;45.534;12.048;2022-07-29T12:43:37;35.50;35.20
53643;DHT22;39546;45.534;12.048;2022-07-29T12:50:08;35.80;35.10
53643;DHT22;39546;45.534;12.048;2022-07-29T12:56:34;35.80;35.00
53643;DHT22;39546;45.534;12.048;2022-07-29T13:02:37;35.90;35.20
53643;DHT22;39546;45.534;12.048;2022-07-29T13:15:25;35.90;36.00
53643;DHT22;39546;45.534;12.048;2022-07-29T13:21:28;35.80;37.10
53643;DHT22;39546;45.534;12.048;2022-07-29T13:27:56;35.90;37.40
53643;DHT22;39546;45.534;12.048;2022-07-29T13:33:58;36.00;37.10
53643;DHT22;39546;45.534;12.048;2022-07-29T13:40:22;36.00;37.00
53643;DHT22;39546;45.534;12.048;2022-07-29T13:47:01;36.00;36.80
53643;DHT22;39546;45.534;12.048;2022-07-29T13:53:04;35.90;37.40
53643;DHT22;39546;45.534;12.048;2022-07-29T13:59:06;35.90;37.60
53643;DHT22;39546;45.534;12.048;2022-07-29T14:05:09;35.90;38.20
53643;DHT22;39546;45.534;12.048;2022-07-29T14:11:11;35.80;38.30
53643;DHT22;39546;45.534;12.048;2022-07-29T14:17:14;35.60;38.50
53643;DHT22;39546;45.534;12.048;2022-07-29T14:23:16;35.60;38.40
53643;DHT22;39546;45.534;12.048;2022-07-29T14:29:18;35.60;38.20
53643;DHT22;39546;45.534;12.048;2022-07-29T14:35:20;35.60;37.90
53643;DHT22;39546;45.534;12.048;2022-07-29T14:41:22;35.40;38.40
53643;DHT22;39546;45.534;12.048;2022-07-29T14:47:24;35.20;39.10
53643;DHT22;39546;45.534;12.048;2022-07-29T14:53:26;35.00;39.10
53643;DHT22;39546;45.534;12.048;2022-07-29T14:59:28;34.90;39.50
53643;DHT22;39546;45.534;12.048;2022-07-29T15:05:31;34.70;39.80
53643;DHT22;39546;45.534;12.048;2022-07-29T15:11:33;34.60;39.70
53643;DHT22;39546;45.534;12.048;2022-07-29T15:17:35;34.50;39.80
53643;DHT22;39546;45.534;12.048;2022-07-29T15:23:38;34.30;40.40
53643;DHT22;39546;45.534;12.048;2022-07-29T15:29:41;34.20;40.50
53643;DHT22;39546;45.534;12.048;2022-07-29T15:35:44;34.10;40.40
53643;DHT22;39546;45.534;12.048;2022-07-29T15:41:46;34.10;40.30
53643;DHT22;39546;45.534;12.048;2022-07-29T15:47:48;33.90;40.50
53643;DHT22;39546;45.534;12.048;2022-07-29T15:53:50;33.90;40.30
53643;DHT22;39546;45.534;12.048;2022-07-29T15:59:52;33.80;40.10
53643;DHT22;39546;45.534;12.048;2022-07-29T16:05:54;33.70;40.20
53643;DHT22;39546;45.534;12.048;2022-07-29T16:11:56;33.60;40.30
53643;DHT22;39546;45.534;12.048;2022-07-29T16:17:58;33.70;40.30
53643;DHT22;39546;45.534;12.048;2022-07-29T16:24:00;33.80;40.30
53643;DHT22;39546;45.534;12.048;2022-07-29T16:30:04;33.80;40.20
53643;DHT22;39546;45.534;12.048;2022-07-29T16:36:07;33.70;40.10
53643;DHT22;39546;45.534;12.048;2022-07-29T16:42:09;33.70;40.20
53643;DHT22;39546;45.534;12.048;2022-07-29T16:48:11;33.60;40.20
53643;DHT22;39546;45.534;12.048;2022-07-29T16:54:13;33.70;40.40
53643;DHT22;39546;45.534;12.048;2022-07-29T17:00:16;33.70;40.50
53643;DHT22;39546;45.534;12.048;2022-07-29T17:06:18;33.60;40.60
53643;DHT22;39546;45.534;12.048;2022-07-29T17:12:20;33.40;40.80
53643;DHT22;39546;45.534;12.048;2022-07-29T17:18:24;33.40;41.00
53643;DHT22;39546;45.534;12.048;2022-07-29T17:24:28;33.40;41.10
53643;DHT22;39546;45.534;12.048;2022-07-29T17:30:38;33.30;41.20
53643;DHT22;39546;45.534;12.048;2022-07-29T17:36:40;33.30;41.30
53643;DHT22;39546;45.534;12.048;2022-07-29T17:42:42;33.20;41.50
53643;DHT22;39546;45.534;12.048;2022-07-29T17:48:45;33.10;41.80
53643;DHT22;39546;45.534;12.048;2022-07-29T17:54:47;32.80;42.40
53643;DHT22;39546;45.534;12.048;2022-07-29T18:00:50;32.00;44.50
53643;DHT22;39546;45.534;12.048;2022-07-29T18:06:53;30.90;46.30
53643;DHT22;39546;45.534;12.048;2022-07-29T18:12:56;30.30;47.50
53643;DHT22;39546;45.534;12.048;2022-07-29T18:18:58;29.80;48.30
53643;DHT22;39546;45.534;12.048;2022-07-29T18:25:01;29.80;48.70
53643;DHT22;39546;45.534;12.048;2022-07-29T18:31:03;29.80;50.40
53643;DHT22;39546;45.534;12.048;2022-07-29T18:37:06;29.70;51.60
53643;DHT22;39546;45.534;12.048;2022-07-29T18:50:03;29.90;51.10
53643;DHT22;39546;45.534;12.048;2022-07-29T18:56:06;29.60;52.10
53643;DHT22;39546;45.534;12.048;2022-07-29T19:02:08;29.20;52.20
53643;DHT22;39546;45.534;12.048;2022-07-29T19:08:10;29.30;52.30
53643;DHT22;39546;45.534;12.048;2022-07-29T19:14:25;29.30;52.80
53643;DHT22;39546;45.534;12.048;2022-07-29T19:20:27;29.10;53.90
53643;DHT22;39546;45.534;12.048;2022-07-29T19:26:30;29.10;53.90
53643;DHT22;39546;45.534;12.048;2022-07-29T19:32:32;29.10;54.50
53643;DHT22;39546;45.534;12.048;2022-07-29T19:38:35;29.10;54.80
53643;DHT22;39546;45.534;12.048;2022-07-29T19:44:40;29.20;55.20
53643;DHT22;39546;45.534;12.048;2022-07-29T19:50:43;29.30;55.40
53643;DHT22;39546;45.534;12.048;2022-07-29T19:56:46;29.30;55.90
53643;DHT22;39546;45.534;12.048;2022-07-29T20:02:48;29.10;55.70
53643;DHT22;39546;45.534;12.048;2022-07-29T20:08:51;29.20;55.40
53643;DHT22;39546;45.534;12.048;2022-07-29T20:14:53;29.00;55.30
53643;DHT22;39546;45.534;12.048;2022-07-29T20:20:55;28.80;55.40
53643;DHT22;39546;45.534;12.048;2022-07-29T20:26:58;28.70;55.30
53643;DHT22;39546;45.534;12.048;2022-07-29T20:33:00;28.60;54.90
53643;DHT22;39546;45.534;12.048;2022-07-29T20:39:03;28.40;55.00
53643;DHT22;39546;45.534;12.048;2022-07-29T20:45:05;28.50;54.90
53643;DHT22;39546;45.534;12.048;2022-07-29T20:51:08;28.50;54.80
53643;DHT22;39546;45.534;12.048;2022-07-29T20:57:11;28.50;54.70
53643;DHT22;39546;45.534;12.048;2022-07-29T21:03:13;28.40;54.60
53643;DHT22;39546;45.534;12.048;2022-07-29T21:09:16;28.20;54.80
53643;DHT22;39546;45.534;12.048;2022-07-29T21:15:19;27.90;55.60
53643;DHT22;39546;45.534;12.048;2022-07-29T21:21:22;27.60;55.70
53643;DHT22;39546;45.534;12.048;2022-07-29T21:27:37;27.60;55.70
53643;DHT22;39546;45.534;12.048;2022-07-29T21:33:57;27.70;55.30
53643;DHT22;39546;45.534;12.048;2022-07-29T21:40:07;27.80;55.20
53643;DHT22;39546;45.534;12.048;2022-07-29T21:52:38;27.60;55.50
53643;DHT22;39546;45.534;12.048;2022-07-29T21:58:40;27.60;55.40
53643;DHT22;39546;45.534;12.048;2022-07-29T22:04:42;27.60;55.50
53643;DHT22;39546;45.534;12.048;2022-07-29T22:10:44;27.80;55.30
53643;DHT22;39546;45.534;12.048;2022-07-29T22:16:50;27.70;55.20
53643;DHT22;39546;45.534;12.048;2022-07-29T22:22:53;27.50;55.30
53643;DHT22;39546;45.534;12.048;2022-07-29T22:28:55;27.60;55.20
53643;DHT22;39546;45.534;12.048;2022-07-29T22:34:57;27.70;55.20
53643;DHT22;39546;45.534;12.048;2022-07-29T22:40:59;27.70;55.10
53643;DHT22;39546;45.534;12.048;2022-07-29T22:47:15;27.60;55.20
53643;DHT22;39546;45.534;12.048;2022-07-29T22:53:17;27.60;55.20
53643;DHT22;39546;45.534;12.048;2022-07-29T22:59:20;27.70;55.30
53643;DHT22;39546;45.534;12.048;2022-07-29T23:05:22;27.60;55.30
53643;DHT22;39546;45.534;12.048;2022-07-29T23:11:24;27.60;55.30
53643;DHT22;39546;45.534;12.048;2022-07-29T23:17:26;27.60;55.30
53643;DHT22;39546;45.534;12.048;2022-07-29T23:23:28;27.50;55.50
53643;DHT22;39546;45.534;12.048;2022-07-29T23:29:30;27.50;55.60
53643;DHT22;39546;45.534;12.048;2022-07-29T23:35:33;27.40;55.80
53643;DHT22;39546;45.534;12.048;2022-07-29T23:41:37;27.30;55.90
53643;DHT22;39546;45.534;12.048;2022-07-29T23:47:40;27.30;56.00
53643;DHT22;39546;45.534;12.048;2022-07-29T23:53:43;27.30;56.30
53643;DHT22;39546;45.534;12.048;2022-07-29T23:59:45;27.20;56.20
